Chemroad Wing — 3EAB8 — position and weather

sailwx.info

Track history (hours):
 
Tides and Currents Weather Stations Pressure Air Temp Water Temp Dewpoint Dewpoint Depression Visibility Wind Speed Wind Dir Waves Ship Positions

Chemroad Wing

Last reported at 2014-Dec-17 09:30 UTC. Time now 2014-Dec-18 15:23 UTC.
Position N 36°39' E 026°32'.

Length 170 m; draft 6.6 m.

Type: Ship (hazmat cat B). MMSI: 357740000.

Date/timePositionNaut miles runAvg speedWind from/ knotsBaromVisibWave heightAir tempDewpointWater temp
2014-Dec-17 09:30N 36°39' E 026°32'1413.6
2014-Dec-17 08:29N 36°49' E 026°21'3214.1
2014-Dec-17 06:12N 37°13' E 025°53'1013.8
2014-Dec-17 05:31N 37°21' E 025°48'18111.3
2014-Dec-16 13:30N 40°19' E 026°36'1511.8
2014-Dec-16 12:15N 40°28' E 026°50'912.4
2014-Dec-16 11:32N 40°32' E 027°01'  
2014-Dec-11 08:06N 38°15' E 025°27'814.2
2014-Dec-11 07:33N 38°08' E 025°31'1413.8
2014-Dec-11 06:33N 37°55' E 025°37'1414.1
2014-Dec-11 05:33N 37°42' E 025°44'1514.6
2014-Dec-11 04:33N 37°30' E 025°53'1514.7
2014-Dec-11 03:33N 37°19' E 026°06'1414.4
2014-Dec-11 02:33N 37°12' E 026°22'1514.3
2014-Dec-11 01:32N 37°06' E 026°38'1814.7
2014-Dec-11 00:17N 36°47' E 026°42'1114.8
2014-Dec-10 23:33N 36°37' E 026°44'1413.7
2014-Dec-10 22:33N 36°24' E 026°51'1514.4
2014-Dec-10 21:31N 36°14' E 027°04'26713.2
2014-Dec-10 01:19N 35°51' E 032°33'1414.2
2014-Dec-10 00:21N 35°51' E 032°50'  
Track history (hours):
 
Tides and Currents Weather Stations Pressure Air Temp Water Temp Dewpoint Dewpoint Depression Visibility Wind Speed Wind Dir Waves Ship Positions

Chemroad Wing

Last reported at 2014-Dec-17 09:30 UTC. Time now 2014-Dec-18 15:23 UTC.
Position N 36°39' E 026°32'.

Length 170 m; draft 6.6 m.

Type: Ship (hazmat cat B). MMSI: 357740000.

Date/timePositionNaut miles runAvg speedWind from/ knotsBaromVisibWave heightAir tempDewpointWater temp
2014-Dec-17 09:30N 36°39' E 026°32'1413.6
2014-Dec-17 08:29N 36°49' E 026°21'3214.1
2014-Dec-17 06:12N 37°13' E 025°53'1013.8
2014-Dec-17 05:31N 37°21' E 025°48'18111.3
2014-Dec-16 13:30N 40°19' E 026°36'1511.8
2014-Dec-16 12:15N 40°28' E 026°50'912.4
2014-Dec-16 11:32N 40°32' E 027°01'  
2014-Dec-11 08:06N 38°15' E 025°27'814.2
2014-Dec-11 07:33N 38°08' E 025°31'1413.8
2014-Dec-11 06:33N 37°55' E 025°37'1414.1
2014-Dec-11 05:33N 37°42' E 025°44'1514.6
2014-Dec-11 04:33N 37°30' E 025°53'1514.7
2014-Dec-11 03:33N 37°19' E 026°06'1414.4
2014-Dec-11 02:33N 37°12' E 026°22'1514.3
2014-Dec-11 01:32N 37°06' E 026°38'1814.7
2014-Dec-11 00:17N 36°47' E 026°42'1114.8
2014-Dec-10 23:33N 36°37' E 026°44'1413.7
2014-Dec-10 22:33N 36°24' E 026°51'1514.4
2014-Dec-10 21:31N 36°14' E 027°04'26713.2
2014-Dec-10 01:19N 35°51' E 032°33'1414.2
2014-Dec-10 00:21N 35°51' E 032°50'  

Dump ship's entire track history